sensor_id;sensor_type;location;lat;lon;timestamp;P1;durP1;ratioP1;P2;durP2;ratioP2
34775;SDS011;20989;52.566;13.346;2023-05-07T00:02:45;2.60;;;2.20;;
34775;SDS011;20989;52.566;13.346;2023-05-07T00:05:46;3.28;;;2.53;;
34775;SDS011;20989;52.566;13.346;2023-05-07T00:08:48;2.58;;;2.38;;
34775;SDS011;20989;52.566;13.346;2023-05-07T00:11:48;5.20;;;2.78;;
34775;SDS011;20989;52.566;13.346;2023-05-07T00:14:49;2.92;;;2.25;;
34775;SDS011;20989;52.566;13.346;2023-05-07T00:17:50;2.83;;;2.25;;
34775;SDS011;20989;52.566;13.346;2023-05-07T00:20:50;3.92;;;2.35;;
34775;SDS011;20989;52.566;13.346;2023-05-07T00:23:51;3.70;;;2.60;;
34775;SDS011;20989;52.566;13.346;2023-05-07T00:26:52;3.33;;;2.15;;
34775;SDS011;20989;52.566;13.346;2023-05-07T00:29:53;2.47;;;2.28;;
34775;SDS011;20989;52.566;13.346;2023-05-07T00:32:53;3.03;;;2.28;;
34775;SDS011;20989;52.566;13.346;2023-05-07T00:35:55;2.65;;;2.45;;
34775;SDS011;20989;52.566;13.346;2023-05-07T00:38:56;3.40;;;2.25;;
34775;SDS011;20989;52.566;13.346;2023-05-07T00:41:59;2.65;;;2.20;;
34775;SDS011;20989;52.566;13.346;2023-05-07T00:45:00;2.08;;;1.88;;
34775;SDS011;20989;52.566;13.346;2023-05-07T00:48:01;2.78;;;2.53;;
34775;SDS011;20989;52.566;13.346;2023-05-07T00:51:03;2.78;;;2.33;;
34775;SDS011;20989;52.566;13.346;2023-05-07T00:54:03;3.08;;;2.53;;
34775;SDS011;20989;52.566;13.346;2023-05-07T00:57:04;2.20;;;1.88;;
34775;SDS011;20989;52.566;13.346;2023-05-07T01:00:06;2.33;;;2.13;;
34775;SDS011;20989;52.566;13.346;2023-05-07T01:03:08;2.13;;;1.83;;
34775;SDS011;20989;52.566;13.346;2023-05-07T01:06:09;1.65;;;1.55;;
34775;SDS011;20989;52.566;13.346;2023-05-07T01:09:12;1.70;;;1.60;;
34775;SDS011;20989;52.566;13.346;2023-05-07T01:12:13;2.33;;;2.13;;
34775;SDS011;20989;52.566;13.346;2023-05-07T01:15:14;2.28;;;1.70;;
34775;SDS011;20989;52.566;13.346;2023-05-07T01:18:16;2.28;;;2.10;;
34775;SDS011;20989;52.566;13.346;2023-05-07T01:21:17;2.38;;;2.17;;
34775;SDS011;20989;52.566;13.346;2023-05-07T01:24:18;1.88;;;1.77;;
34775;SDS011;20989;52.566;13.346;2023-05-07T01:27:19;2.10;;;1.95;;
34775;SDS011;20989;52.566;13.346;2023-05-07T01:30:20;2.08;;;1.88;;
34775;SDS011;20989;52.566;13.346;2023-05-07T01:33:21;2.10;;;1.90;;
34775;SDS011;20989;52.566;13.346;2023-05-07T01:36:23;2.00;;;1.85;;
34775;SDS011;20989;52.566;13.346;2023-05-07T01:39:27;3.13;;;2.42;;
34775;SDS011;20989;52.566;13.346;2023-05-07T01:42:30;1.75;;;1.65;;
34775;SDS011;20989;52.566;13.346;2023-05-07T01:45:31;1.98;;;1.83;;
34775;SDS011;20989;52.566;13.346;2023-05-07T01:48:34;1.90;;;1.80;;
34775;SDS011;20989;52.566;13.346;2023-05-07T01:51:35;2.03;;;1.83;;
34775;SDS011;20989;52.566;13.346;2023-05-07T01:54:36;1.88;;;1.77;;
34775;SDS011;20989;52.566;13.346;2023-05-07T01:57:37;3.08;;;1.92;;
34775;SDS011;20989;52.566;13.346;2023-05-07T02:00:38;2.50;;;2.15;;
34775;SDS011;20989;52.566;13.346;2023-05-07T02:03:39;1.75;;;1.63;;
34775;SDS011;20989;52.566;13.346;2023-05-07T02:06:40;1.95;;;1.73;;
34775;SDS011;20989;52.566;13.346;2023-05-07T02:09:41;1.58;;;1.48;;
34775;SDS011;20989;52.566;13.346;2023-05-07T02:12:42;3.03;;;1.80;;
34775;SDS011;20989;52.566;13.346;2023-05-07T02:15:43;1.85;;;1.75;;
34775;SDS011;20989;52.566;13.346;2023-05-07T02:18:50;1.63;;;1.50;;
34775;SDS011;20989;52.566;13.346;2023-05-07T02:21:52;1.60;;;1.50;;
34775;SDS011;20989;52.566;13.346;2023-05-07T02:24:54;2.03;;;1.38;;
34775;SDS011;20989;52.566;13.346;2023-05-07T02:27:55;1.77;;;1.67;;
34775;SDS011;20989;52.566;13.346;2023-05-07T02:30:55;1.70;;;1.60;;
34775;SDS011;20989;52.566;13.346;2023-05-07T02:33:58;1.63;;;1.52;;
34775;SDS011;20989;52.566;13.346;2023-05-07T02:36:59;1.65;;;1.55;;
34775;SDS011;20989;52.566;13.346;2023-05-07T02:40:00;1.83;;;1.48;;
34775;SDS011;20989;52.566;13.346;2023-05-07T02:43:00;1.60;;;1.50;;
34775;SDS011;20989;52.566;13.346;2023-05-07T02:46:06;1.83;;;1.40;;
34775;SDS011;20989;52.566;13.346;2023-05-07T02:49:08;1.88;;;1.75;;
34775;SDS011;20989;52.566;13.346;2023-05-07T02:52:08;1.50;;;1.40;;
34775;SDS011;20989;52.566;13.346;2023-05-07T02:55:09;1.95;;;1.75;;
34775;SDS011;20989;52.566;13.346;2023-05-07T02:58:10;1.98;;;1.85;;
34775;SDS011;20989;52.566;13.346;2023-05-07T03:01:11;1.50;;;1.40;;
34775;SDS011;20989;52.566;13.346;2023-05-07T03:04:13;1.70;;;1.60;;
34775;SDS011;20989;52.566;13.346;2023-05-07T03:07:14;1.45;;;1.35;;
34775;SDS011;20989;52.566;13.346;2023-05-07T03:10:15;1.88;;;1.65;;
34775;SDS011;20989;52.566;13.346;2023-05-07T03:13:15;1.98;;;1.88;;
34775;SDS011;20989;52.566;13.346;2023-05-07T03:16:16;1.60;;;1.50;;
34775;SDS011;20989;52.566;13.346;2023-05-07T03:19:17;1.73;;;1.58;;
34775;SDS011;20989;52.566;13.346;2023-05-07T03:22:18;1.75;;;1.65;;
34775;SDS011;20989;52.566;13.346;2023-05-07T03:25:18;2.08;;;1.63;;
34775;SDS011;20989;52.566;13.346;2023-05-07T03:28:19;2.00;;;1.60;;
34775;SDS011;20989;52.566;13.346;2023-05-07T03:31:20;1.50;;;1.40;;
34775;SDS011;20989;52.566;13.346;2023-05-07T03:34:20;1.63;;;1.52;;
34775;SDS011;20989;52.566;13.346;2023-05-07T03:37:22;2.42;;;1.20;;
34775;SDS011;20989;52.566;13.346;2023-05-07T03:40:22;1.30;;;1.20;;
34775;SDS011;20989;52.566;13.346;2023-05-07T03:43:23;1.20;;;1.20;;
34775;SDS011;20989;52.566;13.346;2023-05-07T03:46:24;1.60;;;1.50;;
34775;SDS011;20989;52.566;13.346;2023-05-07T03:49:26;1.55;;;1.45;;
34775;SDS011;20989;52.566;13.346;2023-05-07T03:52:26;1.83;;;1.60;;
34775;SDS011;20989;52.566;13.346;2023-05-07T03:55:27;1.40;;;1.30;;
34775;SDS011;20989;52.566;13.346;2023-05-07T03:58:28;2.40;;;1.55;;
34775;SDS011;20989;52.566;13.346;2023-05-07T04:01:29;1.58;;;1.48;;
34775;SDS011;20989;52.566;13.346;2023-05-07T04:04:30;1.35;;;1.25;;
34775;SDS011;20989;52.566;13.346;2023-05-07T04:07:32;1.25;;;1.17;;
34775;SDS011;20989;52.566;13.346;2023-05-07T04:10:33;1.67;;;1.58;;
34775;SDS011;20989;52.566;13.346;2023-05-07T04:13:34;1.40;;;1.30;;
34775;SDS011;20989;52.566;13.346;2023-05-07T04:16:34;1.65;;;1.55;;
34775;SDS011;20989;52.566;13.346;2023-05-07T04:19:35;1.23;;;1.23;;
34775;SDS011;20989;52.566;13.346;2023-05-07T04:22:36;1.63;;;1.52;;
34775;SDS011;20989;52.566;13.346;2023-05-07T04:25:37;1.20;;;1.20;;
34775;SDS011;20989;52.566;13.346;2023-05-07T04:28:38;1.65;;;1.55;;
34775;SDS011;20989;52.566;13.346;2023-05-07T04:31:39;1.67;;;1.20;;
34775;SDS011;20989;52.566;13.346;2023-05-07T04:34:39;1.30;;;1.20;;
34775;SDS011;20989;52.566;13.346;2023-05-07T04:37:41;2.17;;;1.40;;
34775;SDS011;20989;52.566;13.346;2023-05-07T04:40:41;1.40;;;1.30;;
34775;SDS011;20989;52.566;13.346;2023-05-07T04:43:42;1.25;;;1.15;;
34775;SDS011;20989;52.566;13.346;2023-05-07T04:46:43;1.38;;;1.27;;
34775;SDS011;20989;52.566;13.346;2023-05-07T04:49:43;1.60;;;1.50;;
34775;SDS011;20989;52.566;13.346;2023-05-07T04:52:44;1.30;;;1.20;;
34775;SDS011;20989;52.566;13.346;2023-05-07T04:55:45;1.15;;;1.15;;
34775;SDS011;20989;52.566;13.346;2023-05-07T04:58:46;1.65;;;1.55;;
34775;SDS011;20989;52.566;13.346;2023-05-07T05:01:47;1.60;;;1.50;;
34775;SDS011;20989;52.566;13.346;2023-05-07T05:04:47;1.23;;;1.23;;
34775;SDS011;20989;52.566;13.346;2023-05-07T05:07:48;1.40;;;1.30;;
34775;SDS011;20989;52.566;13.346;2023-05-07T05:10:49;1.35;;;1.15;;
34775;SDS011;20989;52.566;13.346;2023-05-07T05:13:49;1.45;;;1.35;;
34775;SDS011;20989;52.566;13.346;2023-05-07T05:16:50;1.00;;;1.00;;
34775;SDS011;20989;52.566;13.346;2023-05-07T05:19:51;1.58;;;1.48;;
34775;SDS011;20989;52.566;13.346;2023-05-07T05:22:51;1.42;;;1.33;;
34775;SDS011;20989;52.566;13.346;2023-05-07T05:25:58;1.52;;;1.42;;
34775;SDS011;20989;52.566;13.346;2023-05-07T05:28:59;1.25;;;1.17;;
34775;SDS011;20989;52.566;13.346;2023-05-07T05:32:00;1.50;;;1.40;;
34775;SDS011;20989;52.566;13.346;2023-05-07T05:35:00;1.33;;;1.10;;
34775;SDS011;20989;52.566;13.346;2023-05-07T05:38:01;1.40;;;1.30;;
34775;SDS011;20989;52.566;13.346;2023-05-07T05:41:02;1.65;;;1.30;;
34775;SDS011;20989;52.566;13.346;2023-05-07T05:44:03;1.38;;;1.30;;
34775;SDS011;20989;52.566;13.346;2023-05-07T05:47:03;1.00;;;1.00;;
34775;SDS011;20989;52.566;13.346;2023-05-07T05:50:05;1.48;;;1.05;;
34775;SDS011;20989;52.566;13.346;2023-05-07T05:53:07;1.40;;;1.30;;
34775;SDS011;20989;52.566;13.346;2023-05-07T05:56:08;1.35;;;1.30;;
34775;SDS011;20989;52.566;13.346;2023-05-07T05:59:08;1.40;;;1.30;;
34775;SDS011;20989;52.566;13.346;2023-05-07T06:02:10;1.08;;;0.98;;
34775;SDS011;20989;52.566;13.346;2023-05-07T06:05:10;1.17;;;1.17;;
34775;SDS011;20989;52.566;13.346;2023-05-07T06:08:11;1.33;;;1.33;;
34775;SDS011;20989;52.566;13.346;2023-05-07T06:11:12;1.30;;;1.20;;
34775;SDS011;20989;52.566;13.346;2023-05-07T06:14:12;1.40;;;1.30;;
34775;SDS011;20989;52.566;13.346;2023-05-07T06:17:13;1.35;;;1.30;;
34775;SDS011;20989;52.566;13.346;2023-05-07T06:20:14;1.08;;;1.08;;
34775;SDS011;20989;52.566;13.346;2023-05-07T06:23:14;1.20;;;1.10;;
34775;SDS011;20989;52.566;13.346;2023-05-07T06:26:15;1.25;;;1.15;;
34775;SDS011;20989;52.566;13.346;2023-05-07T06:29:16;1.08;;;1.08;;
34775;SDS011;20989;52.566;13.346;2023-05-07T06:32:16;1.30;;;1.20;;
34775;SDS011;20989;52.566;13.346;2023-05-07T06:35:18;1.40;;;1.30;;
34775;SDS011;20989;52.566;13.346;2023-05-07T06:38:18;1.15;;;1.13;;
34775;SDS011;20989;52.566;13.346;2023-05-07T06:41:19;1.10;;;1.10;;
34775;SDS011;20989;52.566;13.346;2023-05-07T06:44:20;1.20;;;1.10;;
34775;SDS011;20989;52.566;13.346;2023-05-07T06:47:21;1.00;;;1.00;;
34775;SDS011;20989;52.566;13.346;2023-05-07T06:50:21;1.27;;;1.17;;
34775;SDS011;20989;52.566;13.346;2023-05-07T06:53:23;1.13;;;1.13;;
34775;SDS011;20989;52.566;13.346;2023-05-07T06:56:24;1.10;;;1.10;;
34775;SDS011;20989;52.566;13.346;2023-05-07T06:59:25;1.13;;;1.13;;
34775;SDS011;20989;52.566;13.346;2023-05-07T07:02:25;1.20;;;1.10;;
34775;SDS011;20989;52.566;13.346;2023-05-07T07:05:26;1.35;;;1.25;;
34775;SDS011;20989;52.566;13.346;2023-05-07T07:08:27;1.25;;;1.15;;
34775;SDS011;20989;52.566;13.346;2023-05-07T07:11:27;1.02;;;1.00;;
34775;SDS011;20989;52.566;13.346;2023-05-07T07:14:28;1.27;;;1.27;;
34775;SDS011;20989;52.566;13.346;2023-05-07T07:17:29;0.90;;;0.90;;
34775;SDS011;20989;52.566;13.346;2023-05-07T07:20:29;1.10;;;1.10;;
34775;SDS011;20989;52.566;13.346;2023-05-07T07:23:30;1.25;;;1.25;;
34775;SDS011;20989;52.566;13.346;2023-05-07T07:26:31;1.10;;;1.05;;
34775;SDS011;20989;52.566;13.346;2023-05-07T07:29:31;1.50;;;1.40;;
34775;SDS011;20989;52.566;13.346;2023-05-07T07:32:32;1.13;;;1.10;;
34775;SDS011;20989;52.566;13.346;2023-05-07T07:35:33;1.33;;;1.20;;
34775;SDS011;20989;52.566;13.346;2023-05-07T07:38:34;1.33;;;1.25;;
34775;SDS011;20989;52.566;13.346;2023-05-07T07:41:35;1.20;;;1.10;;
34775;SDS011;20989;52.566;13.346;2023-05-07T07:44:36;0.80;;;0.80;;
34775;SDS011;20989;52.566;13.346;2023-05-07T07:47:36;1.20;;;1.10;;
34775;SDS011;20989;52.566;13.346;2023-05-07T07:50:37;0.80;;;0.80;;
34775;SDS011;20989;52.566;13.346;2023-05-07T07:53:38;1.10;;;1.00;;
34775;SDS011;20989;52.566;13.346;2023-05-07T07:56:39;1.20;;;1.10;;
34775;SDS011;20989;52.566;13.346;2023-05-07T07:59:39;0.95;;;0.95;;
34775;SDS011;20989;52.566;13.346;2023-05-07T08:02:42;1.30;;;1.20;;
34775;SDS011;20989;52.566;13.346;2023-05-07T08:05:43;1.10;;;1.10;;
34775;SDS011;20989;52.566;13.346;2023-05-07T08:08:43;1.10;;;1.10;;
34775;SDS011;20989;52.566;13.346;2023-05-07T08:11:44;1.48;;;1.38;;
34775;SDS011;20989;52.566;13.346;2023-05-07T08:14:45;1.13;;;1.13;;
34775;SDS011;20989;52.566;13.346;2023-05-07T08:17:45;1.13;;;1.02;;
34775;SDS011;20989;52.566;13.346;2023-05-07T08:20:46;1.05;;;1.05;;
34775;SDS011;20989;52.566;13.346;2023-05-07T08:23:47;1.20;;;1.20;;
34775;SDS011;20989;52.566;13.346;2023-05-07T08:26:48;1.25;;;1.17;;
34775;SDS011;20989;52.566;13.346;2023-05-07T08:29:49;1.20;;;1.20;;
34775;SDS011;20989;52.566;13.346;2023-05-07T08:32:50;0.82;;;0.82;;
34775;SDS011;20989;52.566;13.346;2023-05-07T08:35:51;1.02;;;1.02;;
34775;SDS011;20989;52.566;13.346;2023-05-07T08:38:51;0.90;;;0.90;;
34775;SDS011;20989;52.566;13.346;2023-05-07T08:41:53;1.27;;;1.23;;
34775;SDS011;20989;52.566;13.346;2023-05-07T08:44:57;1.00;;;1.00;;
34775;SDS011;20989;52.566;13.346;2023-05-07T08:48:00;1.40;;;1.30;;
34775;SDS011;20989;52.566;13.346;2023-05-07T08:51:03;12.15;;;1.55;;
34775;SDS011;20989;52.566;13.346;2023-05-07T08:54:03;3.78;;;1.70;;
34775;SDS011;20989;52.566;13.346;2023-05-07T08:57:05;2.35;;;1.52;;
34775;SDS011;20989;52.566;13.346;2023-05-07T09:00:06;2.00;;;1.90;;
34775;SDS011;20989;52.566;13.346;2023-05-07T09:03:07;4.40;;;2.08;;
34775;SDS011;20989;52.566;13.346;2023-05-07T09:06:08;5.38;;;1.92;;
34775;SDS011;20989;52.566;13.346;2023-05-07T09:09:10;3.30;;;2.05;;
34775;SDS011;20989;52.566;13.346;2023-05-07T09:12:14;2.38;;;2.05;;
34775;SDS011;20989;52.566;13.346;2023-05-07T09:15:15;2.58;;;2.38;;
34775;SDS011;20989;52.566;13.346;2023-05-07T09:18:16;3.33;;;2.35;;
34775;SDS011;20989;52.566;13.346;2023-05-07T09:21:17;3.25;;;2.30;;
34775;SDS011;20989;52.566;13.346;2023-05-07T09:24:19;3.30;;;2.00;;
34775;SDS011;20989;52.566;13.346;2023-05-07T09:27:19;3.60;;;2.05;;
34775;SDS011;20989;52.566;13.346;2023-05-07T09:30:20;3.55;;;2.10;;
34775;SDS011;20989;52.566;13.346;2023-05-07T09:33:21;3.72;;;2.70;;
34775;SDS011;20989;52.566;13.346;2023-05-07T09:36:21;2.30;;;2.10;;
34775;SDS011;20989;52.566;13.346;2023-05-07T09:39:25;5.40;;;2.15;;
34775;SDS011;20989;52.566;13.346;2023-05-07T09:42:26;2.90;;;2.10;;
34775;SDS011;20989;52.566;13.346;2023-05-07T09:45:27;2.33;;;1.70;;
34775;SDS011;20989;52.566;13.346;2023-05-07T09:48:29;2.10;;;2.00;;
34775;SDS011;20989;52.566;13.346;2023-05-07T09:51:38;4.55;;;2.47;;
34775;SDS011;20989;52.566;13.346;2023-05-07T09:54:43;3.33;;;2.00;;
34775;SDS011;20989;52.566;13.346;2023-05-07T09:57:45;2.42;;;2.22;;
34775;SDS011;20989;52.566;13.346;2023-05-07T10:00:50;9.13;;;2.10;;
34775;SDS011;20989;52.566;13.346;2023-05-07T10:03:52;2.05;;;1.95;;
34775;SDS011;20989;52.566;13.346;2023-05-07T10:06:53;2.60;;;2.38;;
34775;SDS011;20989;52.566;13.346;2023-05-07T10:09:55;6.47;;;1.88;;
34775;SDS011;20989;52.566;13.346;2023-05-07T10:12:57;1.30;;;1.20;;
34775;SDS011;20989;52.566;13.346;2023-05-07T10:15:59;3.65;;;1.80;;
34775;SDS011;20989;52.566;13.346;2023-05-07T10:19:00;2.28;;;2.00;;
34775;SDS011;20989;52.566;13.346;2023-05-07T10:22:06;5.70;;;1.75;;
34775;SDS011;20989;52.566;13.346;2023-05-07T10:25:14;1.48;;;1.38;;
34775;SDS011;20989;52.566;13.346;2023-05-07T10:28:20;1.63;;;1.50;;
34775;SDS011;20989;52.566;13.346;2023-05-07T10:34:43;1.40;;;1.30;;
34775;SDS011;20989;52.566;13.346;2023-05-07T10:37:47;2.78;;;1.20;;
34775;SDS011;20989;52.566;13.346;2023-05-07T10:40:48;2.05;;;1.65;;
34775;SDS011;20989;52.566;13.346;2023-05-07T10:43:50;1.50;;;1.40;;
34775;SDS011;20989;52.566;13.346;2023-05-07T10:47:08;1.50;;;1.40;;
34775;SDS011;20989;52.566;13.346;2023-05-07T11:06:15;1.95;;;1.50;;
34775;SDS011;20989;52.566;13.346;2023-05-07T11:09:16;1.75;;;1.52;;
34775;SDS011;20989;52.566;13.346;2023-05-07T11:12:17;1.67;;;1.48;;
34775;SDS011;20989;52.566;13.346;2023-05-07T11:15:38;1.40;;;1.30;;
34775;SDS011;20989;52.566;13.346;2023-05-07T11:18:51;1.27;;;1.08;;
34775;SDS011;20989;52.566;13.346;2023-05-07T11:21:53;3.42;;;1.10;;
34775;SDS011;20989;52.566;13.346;2023-05-07T11:24:54;1.65;;;1.55;;
34775;SDS011;20989;52.566;13.346;2023-05-07T11:27:55;1.50;;;1.40;;
34775;SDS011;20989;52.566;13.346;2023-05-07T11:30:57;1.20;;;1.20;;
34775;SDS011;20989;52.566;13.346;2023-05-07T11:33:58;3.45;;;1.70;;
34775;SDS011;20989;52.566;13.346;2023-05-07T11:37:00;1.63;;;1.52;;
34775;SDS011;20989;52.566;13.346;2023-05-07T11:40:02;1.30;;;1.20;;
34775;SDS011;20989;52.566;13.346;2023-05-07T11:43:10;1.00;;;1.00;;
34775;SDS011;20989;52.566;13.346;2023-05-07T11:46:11;1.33;;;1.23;;
34775;SDS011;20989;52.566;13.346;2023-05-07T11:49:14;1.35;;;1.27;;
34775;SDS011;20989;52.566;13.346;2023-05-07T11:52:16;1.15;;;1.08;;
34775;SDS011;20989;52.566;13.346;2023-05-07T11:55:18;1.23;;;1.23;;
34775;SDS011;20989;52.566;13.346;2023-05-07T11:58:23;1.30;;;1.20;;
34775;SDS011;20989;52.566;13.346;2023-05-07T12:01:24;1.50;;;1.40;;
34775;SDS011;20989;52.566;13.346;2023-05-07T12:04:25;1.45;;;1.20;;
34775;SDS011;20989;52.566;13.346;2023-05-07T12:07:25;2.60;;;1.15;;
34775;SDS011;20989;52.566;13.346;2023-05-07T12:10:26;1.23;;;1.23;;
34775;SDS011;20989;52.566;13.346;2023-05-07T12:13:27;1.23;;;1.13;;
34775;SDS011;20989;52.566;13.346;2023-05-07T12:16:28;1.00;;;1.00;;
34775;SDS011;20989;52.566;13.346;2023-05-07T12:19:30;1.15;;;1.00;;
34775;SDS011;20989;52.566;13.346;2023-05-07T12:22:30;1.30;;;1.20;;
34775;SDS011;20989;52.566;13.346;2023-05-07T12:25:32;1.20;;;1.20;;
34775;SDS011;20989;52.566;13.346;2023-05-07T12:28:39;1.10;;;1.05;;
34775;SDS011;20989;52.566;13.346;2023-05-07T12:31:42;1.15;;;1.05;;
34775;SDS011;20989;52.566;13.346;2023-05-07T12:34:43;1.05;;;1.05;;
34775;SDS011;20989;52.566;13.346;2023-05-07T12:37:45;1.20;;;1.15;;
34775;SDS011;20989;52.566;13.346;2023-05-07T12:40:55;1.10;;;1.02;;
34775;SDS011;20989;52.566;13.346;2023-05-07T12:43:56;1.15;;;1.10;;
34775;SDS011;20989;52.566;13.346;2023-05-07T12:46:58;1.08;;;1.08;;
34775;SDS011;20989;52.566;13.346;2023-05-07T12:50:01;1.48;;;1.02;;
34775;SDS011;20989;52.566;13.346;2023-05-07T12:53:03;1.10;;;1.10;;
34775;SDS011;20989;52.566;13.346;2023-05-07T12:56:08;1.08;;;1.08;;
34775;SDS011;20989;52.566;13.346;2023-05-07T12:59:09;1.13;;;1.13;;
34775;SDS011;20989;52.566;13.346;2023-05-07T13:02:09;1.20;;;1.10;;
34775;SDS011;20989;52.566;13.346;2023-05-07T13:05:10;1.38;;;1.30;;
34775;SDS011;20989;52.566;13.346;2023-05-07T13:08:11;1.15;;;1.05;;
34775;SDS011;20989;52.566;13.346;2023-05-07T13:11:12;1.00;;;1.00;;
34775;SDS011;20989;52.566;13.346;2023-05-07T13:14:13;1.38;;;1.13;;
34775;SDS011;20989;52.566;13.346;2023-05-07T13:17:13;0.93;;;0.93;;
34775;SDS011;20989;52.566;13.346;2023-05-07T13:20:14;1.45;;;1.35;;
34775;SDS011;20989;52.566;13.346;2023-05-07T13:23:15;0.93;;;0.93;;
34775;SDS011;20989;52.566;13.346;2023-05-07T13:26:16;1.10;;;1.10;;
34775;SDS011;20989;52.566;13.346;2023-05-07T13:29:17;0.90;;;0.90;;
34775;SDS011;20989;52.566;13.346;2023-05-07T13:32:17;0.70;;;0.70;;
34775;SDS011;20989;52.566;13.346;2023-05-07T13:35:18;1.42;;;1.33;;
34775;SDS011;20989;52.566;13.346;2023-05-07T13:38:19;0.80;;;0.80;;
34775;SDS011;20989;52.566;13.346;2023-05-07T13:41:19;1.08;;;1.08;;
34775;SDS011;20989;52.566;13.346;2023-05-07T13:44:20;1.27;;;1.17;;
34775;SDS011;20989;52.566;13.346;2023-05-07T13:47:20;1.20;;;1.10;;
34775;SDS011;20989;52.566;13.346;2023-05-07T13:50:21;1.00;;;1.00;;
34775;SDS011;20989;52.566;13.346;2023-05-07T13:53:22;1.30;;;1.20;;
34775;SDS011;20989;52.566;13.346;2023-05-07T13:56:23;7.43;;;1.27;;
34775;SDS011;20989;52.566;13.346;2023-05-07T13:59:24;1.90;;;1.30;;
34775;SDS011;20989;52.566;13.346;2023-05-07T14:02:24;2.88;;;1.15;;
34775;SDS011;20989;52.566;13.346;2023-05-07T14:05:25;13.18;;;1.60;;
34775;SDS011;20989;52.566;13.346;2023-05-07T14:08:28;3.03;;;0.93;;
34775;SDS011;20989;52.566;13.346;2023-05-07T14:11:29;5.97;;;1.20;;
34775;SDS011;20989;52.566;13.346;2023-05-07T14:14:31;2.40;;;1.40;;
34775;SDS011;20989;52.566;13.346;2023-05-07T14:17:32;4.00;;;1.20;;
34775;SDS011;20989;52.566;13.346;2023-05-07T14:20:33;2.72;;;1.27;;
34775;SDS011;20989;52.566;13.346;2023-05-07T14:23:36;18.17;;;1.90;;
34775;SDS011;20989;52.566;13.346;2023-05-07T14:26:37;10.88;;;1.63;;
34775;SDS011;20989;52.566;13.346;2023-05-07T14:29:37;9.25;;;2.75;;
34775;SDS011;20989;52.566;13.346;2023-05-07T14:32:38;14.68;;;4.90;;
34775;SDS011;20989;52.566;13.346;2023-05-07T14:35:39;21.23;;;5.40;;
34775;SDS011;20989;52.566;13.346;2023-05-07T14:38:40;39.00;;;13.27;;
34775;SDS011;20989;52.566;13.346;2023-05-07T14:41:40;36.53;;;14.75;;
34775;SDS011;20989;52.566;13.346;2023-05-07T14:44:41;37.28;;;12.63;;
34775;SDS011;20989;52.566;13.346;2023-05-07T14:47:42;39.08;;;11.63;;
34775;SDS011;20989;52.566;13.346;2023-05-07T14:50:42;24.20;;;9.15;;
34775;SDS011;20989;52.566;13.346;2023-05-07T14:53:43;25.02;;;8.00;;
34775;SDS011;20989;52.566;13.346;2023-05-07T14:56:44;40.70;;;13.30;;
34775;SDS011;20989;52.566;13.346;2023-05-07T14:59:45;45.78;;;17.30;;
34775;SDS011;20989;52.566;13.346;2023-05-07T15:02:47;43.35;;;15.15;;
34775;SDS011;20989;52.566;13.346;2023-05-07T15:05:47;55.53;;;17.52;;
34775;SDS011;20989;52.566;13.346;2023-05-07T15:08:50;48.05;;;16.67;;
34775;SDS011;20989;52.566;13.346;2023-05-07T15:11:51;37.25;;;14.52;;
34775;SDS011;20989;52.566;13.346;2023-05-07T15:14:52;48.63;;;15.40;;
34775;SDS011;20989;52.566;13.346;2023-05-07T15:17:53;65.82;;;18.80;;
34775;SDS011;20989;52.566;13.346;2023-05-07T15:20:55;50.17;;;15.82;;
34775;SDS011;20989;52.566;13.346;2023-05-07T15:23:56;52.53;;;17.33;;
34775;SDS011;20989;52.566;13.346;2023-05-07T15:26:57;70.80;;;18.15;;
34775;SDS011;20989;52.566;13.346;2023-05-07T15:29:58;53.60;;;15.02;;
34775;SDS011;20989;52.566;13.346;2023-05-07T15:32:59;48.60;;;14.27;;
34775;SDS011;20989;52.566;13.346;2023-05-07T15:36:01;45.05;;;16.02;;
34775;SDS011;20989;52.566;13.346;2023-05-07T15:39:03;45.25;;;13.95;;
34775;SDS011;20989;52.566;13.346;2023-05-07T15:42:04;46.47;;;14.27;;
34775;SDS011;20989;52.566;13.346;2023-05-07T15:45:05;61.22;;;15.05;;
34775;SDS011;20989;52.566;13.346;2023-05-07T15:48:06;64.82;;;15.13;;
34775;SDS011;20989;52.566;13.346;2023-05-07T15:51:08;40.85;;;12.85;;
34775;SDS011;20989;52.566;13.346;2023-05-07T15:54:09;54.22;;;13.13;;
34775;SDS011;20989;52.566;13.346;2023-05-07T15:57:10;51.90;;;13.40;;
34775;SDS011;20989;52.566;13.346;2023-05-07T16:00:11;30.75;;;12.27;;
34775;SDS011;20989;52.566;13.346;2023-05-07T16:03:13;41.70;;;12.60;;
34775;SDS011;20989;52.566;13.346;2023-05-07T16:06:13;64.85;;;13.88;;
34775;SDS011;20989;52.566;13.346;2023-05-07T16:09:14;39.60;;;11.25;;
34775;SDS011;20989;52.566;13.346;2023-05-07T16:12:15;37.50;;;11.68;;
34775;SDS011;20989;52.566;13.346;2023-05-07T16:15:17;42.67;;;11.35;;
34775;SDS011;20989;52.566;13.346;2023-05-07T16:18:18;45.15;;;11.88;;
34775;SDS011;20989;52.566;13.346;2023-05-07T16:21:18;47.55;;;11.95;;
34775;SDS011;20989;52.566;13.346;2023-05-07T16:24:19;51.08;;;11.18;;
34775;SDS011;20989;52.566;13.346;2023-05-07T16:27:20;42.60;;;11.38;;
34775;SDS011;20989;52.566;13.346;2023-05-07T16:30:20;43.25;;;11.02;;
34775;SDS011;20989;52.566;13.346;2023-05-07T16:33:21;33.90;;;9.60;;
34775;SDS011;20989;52.566;13.346;2023-05-07T16:36:22;29.45;;;9.68;;
34775;SDS011;20989;52.566;13.346;2023-05-07T16:39:26;33.28;;;8.90;;
34775;SDS011;20989;52.566;13.346;2023-05-07T16:42:27;26.88;;;8.57;;
34775;SDS011;20989;52.566;13.346;2023-05-07T16:45:27;21.60;;;7.95;;
34775;SDS011;20989;52.566;13.346;2023-05-07T16:48:28;24.05;;;8.50;;
34775;SDS011;20989;52.566;13.346;2023-05-07T16:51:29;26.75;;;8.98;;
34775;SDS011;20989;52.566;13.346;2023-05-07T16:54:30;28.10;;;8.15;;
34775;SDS011;20989;52.566;13.346;2023-05-07T16:57:31;20.88;;;7.85;;
34775;SDS011;20989;52.566;13.346;2023-05-07T17:00:32;50.15;;;8.57;;
34775;SDS011;20989;52.566;13.346;2023-05-07T17:03:33;66.45;;;10.23;;
34775;SDS011;20989;52.566;13.346;2023-05-07T17:06:33;40.25;;;8.68;;
34775;SDS011;20989;52.566;13.346;2023-05-07T17:09:34;26.88;;;7.30;;
34775;SDS011;20989;52.566;13.346;2023-05-07T17:12:35;26.85;;;7.88;;
34775;SDS011;20989;52.566;13.346;2023-05-07T17:15:37;28.25;;;7.97;;
34775;SDS011;20989;52.566;13.346;2023-05-07T17:18:40;26.27;;;8.45;;
34775;SDS011;20989;52.566;13.346;2023-05-07T17:21:40;30.15;;;6.82;;
34775;SDS011;20989;52.566;13.346;2023-05-07T17:24:41;25.77;;;6.25;;
34775;SDS011;20989;52.566;13.346;2023-05-07T17:27:42;31.58;;;7.00;;
34775;SDS011;20989;52.566;13.346;2023-05-07T17:30:42;25.95;;;6.57;;
34775;SDS011;20989;52.566;13.346;2023-05-07T17:33:45;37.13;;;8.10;;
34775;SDS011;20989;52.566;13.346;2023-05-07T17:36:46;51.92;;;7.50;;
34775;SDS011;20989;52.566;13.346;2023-05-07T17:39:46;61.45;;;8.20;;
34775;SDS011;20989;52.566;13.346;2023-05-07T17:42:48;45.13;;;7.07;;
34775;SDS011;20989;52.566;13.346;2023-05-07T17:45:49;28.92;;;6.43;;
34775;SDS011;20989;52.566;13.346;2023-05-07T17:48:50;25.05;;;6.85;;
34775;SDS011;20989;52.566;13.346;2023-05-07T17:51:51;38.65;;;6.25;;
34775;SDS011;20989;52.566;13.346;2023-05-07T17:54:52;35.13;;;6.07;;
34775;SDS011;20989;52.566;13.346;2023-05-07T17:57:52;28.35;;;6.07;;
34775;SDS011;20989;52.566;13.346;2023-05-07T18:00:53;23.67;;;5.80;;
34775;SDS011;20989;52.566;13.346;2023-05-07T18:03:56;17.38;;;5.38;;
34775;SDS011;20989;52.566;13.346;2023-05-07T18:06:57;38.65;;;6.35;;
34775;SDS011;20989;52.566;13.346;2023-05-07T18:09:58;33.00;;;5.82;;
34775;SDS011;20989;52.566;13.346;2023-05-07T18:12:59;23.60;;;5.75;;